createdAt,value
2023-04-10T00:00:32.560Z,8.38
2023-04-10T00:03:04.046Z,7.97
2023-04-10T00:05:31.501Z,7.70
2023-04-10T00:07:58.428Z,7.63
2023-04-10T00:10:26.621Z,8.00
2023-04-10T00:12:54.053Z,8.30
2023-04-10T00:15:21.186Z,8.00
2023-04-10T00:17:50.563Z,7.43
2023-04-10T00:20:17.554Z,8.20
2023-04-10T00:22:44.449Z,7.63
2023-04-10T00:25:11.328Z,7.35
2023-04-10T00:27:38.230Z,7.60
2023-04-10T00:30:05.633Z,7.25
2023-04-10T00:32:32.576Z,7.45
2023-04-10T00:34:59.537Z,7.03
2023-04-10T00:37:27.487Z,7.18
2023-04-10T00:39:54.500Z,7.07
2023-04-10T00:42:21.599Z,7.15
2023-04-10T00:44:48.596Z,6.97
2023-04-10T00:47:15.768Z,7.28
2023-04-10T00:49:44.283Z,7.05
2023-04-10T00:52:11.897Z,6.65
2023-04-10T00:54:39.792Z,6.45
2023-04-10T00:57:07.084Z,6.63
2023-04-10T00:59:34.781Z,6.10
2023-04-10T01:02:02.155Z,6.45
2023-04-10T01:04:31.314Z,6.20
2023-04-10T01:07:09.191Z,6.43
2023-04-10T01:09:41.567Z,6.25
2023-04-10T01:12:39.344Z,6.28
2023-04-10T01:15:11.759Z,5.75
2023-04-10T01:17:59.285Z,5.97
2023-04-10T01:20:31.083Z,5.63
2023-04-10T01:23:12.781Z,5.60
2023-04-10T01:25:54.057Z,6.38
2023-04-10T01:28:20.902Z,6.00
2023-04-10T01:30:49.052Z,6.00
2023-04-10T01:33:20.679Z,5.35
2023-04-10T01:35:55.101Z,5.57
2023-04-10T01:38:27.232Z,5.40
2023-04-10T01:40:56.102Z,5.68
2023-04-10T01:43:26.389Z,5.55
2023-04-10T01:45:53.628Z,5.50
2023-04-10T01:48:21.837Z,6.03
2023-04-10T01:50:49.178Z,5.32
2023-04-10T01:53:17.250Z,5.22
2023-04-10T01:55:44.370Z,5.20
2023-04-10T01:58:12.116Z,5.90
2023-04-10T02:00:43.351Z,6.05
2023-04-10T02:03:11.346Z,5.40
2023-04-10T02:06:03.996Z,5.57
2023-04-10T02:08:42.536Z,6.10
2023-04-10T02:11:24.972Z,5.70
2023-04-10T02:13:54.600Z,5.43
2023-04-10T02:16:23.392Z,6.07
2023-04-10T02:18:51.813Z,6.35
2023-04-10T02:21:19.000Z,6.07
2023-04-10T02:23:46.073Z,5.88
2023-04-10T02:26:12.984Z,6.88
2023-04-10T02:28:40.502Z,6.05
2023-04-10T02:31:07.841Z,6.47
2023-04-10T02:33:34.837Z,6.50
2023-04-10T02:36:02.197Z,6.30
2023-04-10T02:38:29.145Z,5.80
2023-04-10T02:40:56.212Z,6.20
2023-04-10T02:43:23.208Z,6.00
2023-04-10T02:45:50.436Z,5.70
2023-04-10T02:48:17.701Z,5.93
2023-04-10T02:50:46.701Z,6.07
2023-04-10T02:53:16.093Z,6.32
2023-04-10T02:55:43.165Z,6.15
2023-04-10T02:58:10.168Z,6.60
2023-04-10T03:00:38.255Z,6.70
2023-04-10T03:03:05.686Z,6.00
2023-04-10T03:05:32.807Z,6.50
2023-04-10T03:07:59.762Z,6.70
2023-04-10T03:10:26.616Z,6.47
2023-04-10T03:12:53.434Z,6.15
2023-04-10T03:15:20.598Z,5.90
2023-04-10T03:17:47.543Z,6.28
2023-04-10T03:20:15.820Z,6.05
2023-04-10T03:22:42.831Z,5.90
2023-04-10T03:25:09.967Z,5.80
2023-04-10T03:27:36.880Z,6.30
2023-04-10T03:30:04.100Z,6.60
2023-04-10T03:32:31.289Z,6.03
2023-04-10T03:34:59.244Z,6.03
2023-04-10T03:37:27.741Z,6.35
2023-04-10T03:39:54.822Z,6.15
2023-04-10T03:42:21.856Z,6.10
2023-04-10T03:44:48.738Z,6.47
2023-04-10T03:47:16.310Z,5.30
2023-04-10T03:49:43.256Z,5.88
2023-04-10T03:52:10.810Z,5.78
2023-04-10T03:54:37.739Z,6.53
2023-04-10T03:57:04.984Z,6.28
2023-04-10T03:59:38.625Z,6.50
2023-04-10T04:02:07.534Z,6.15
2023-04-10T04:04:34.889Z,6.13
2023-04-10T04:07:01.813Z,5.97
2023-04-10T04:09:28.751Z,5.95
2023-04-10T04:11:56.417Z,5.53
2023-04-10T04:14:23.964Z,6.05
2023-04-10T04:16:51.143Z,5.88
2023-04-10T04:19:18.180Z,5.72
2023-04-10T04:21:45.581Z,6.13
2023-04-10T04:24:12.525Z,5.63
2023-04-10T04:26:40.805Z,6.20
2023-04-10T04:29:07.851Z,6.20
2023-04-10T04:31:34.878Z,5.93
2023-04-10T04:34:02.064Z,6.15
2023-04-10T04:36:29.043Z,5.68
2023-04-10T04:38:55.873Z,6.60
2023-04-10T04:41:22.717Z,6.07
2023-04-10T04:43:49.724Z,6.10
2023-04-10T04:46:16.891Z,5.75
2023-04-10T04:48:44.325Z,6.28
2023-04-10T04:51:11.451Z,6.30
2023-04-10T04:53:38.334Z,6.20
2023-04-10T04:56:05.880Z,5.78
2023-04-10T04:58:33.740Z,6.25
2023-04-10T05:01:00.919Z,5.60
2023-04-10T05:03:32.033Z,5.97
2023-04-10T05:05:59.109Z,5.90
2023-04-10T05:08:26.482Z,6.13
2023-04-10T05:10:53.372Z,6.15
2023-04-10T05:13:20.364Z,6.32
2023-04-10T05:15:48.417Z,5.97
2023-04-10T05:18:19.627Z,6.40
2023-04-10T05:20:47.761Z,6.10
2023-04-10T05:23:14.820Z,5.65
2023-04-10T05:25:43.256Z,5.90
2023-04-10T05:28:10.380Z,6.18
2023-04-10T05:30:37.288Z,5.90
2023-04-10T05:33:04.325Z,6.22
2023-04-10T05:35:31.238Z,6.07
2023-04-10T05:37:59.180Z,6.35
2023-04-10T05:40:26.589Z,6.50
2023-04-10T05:42:53.661Z,6.47
2023-04-10T05:45:21.058Z,5.95
2023-04-10T05:47:48.037Z,6.32
2023-04-10T05:50:15.355Z,6.15
2023-04-10T05:52:42.182Z,6.00
2023-04-10T05:55:09.707Z,6.28
2023-04-10T05:57:36.615Z,6.18
2023-04-10T06:00:04.222Z,6.10
2023-04-10T06:02:32.306Z,6.30
2023-04-10T06:04:59.685Z,5.90
2023-04-10T06:07:27.415Z,6.35
2023-04-10T06:09:54.390Z,5.82
2023-04-10T06:12:21.376Z,6.30
2023-04-10T06:14:48.275Z,5.95
2023-04-10T06:17:15.125Z,6.07
2023-04-10T06:19:42.184Z,6.07
2023-04-10T06:22:09.193Z,6.35
2023-04-10T06:24:36.435Z,6.30
2023-04-10T06:27:03.526Z,6.03
2023-04-10T06:29:30.585Z,5.78
2023-04-10T06:31:57.896Z,6.03
2023-04-10T06:34:24.848Z,5.80
2023-04-10T06:36:52.080Z,6.10
2023-04-10T06:39:19.774Z,6.22
2023-04-10T06:41:46.840Z,6.15
2023-04-10T06:44:13.790Z,5.90
2023-04-10T06:46:40.863Z,6.03
2023-04-10T06:49:07.865Z,5.88
2023-04-10T06:51:34.756Z,6.03
2023-04-10T06:54:01.679Z,5.95
2023-04-10T06:56:28.682Z,6.07
2023-04-10T06:58:56.412Z,5.65
2023-04-10T07:01:23.304Z,6.15
2023-04-10T07:03:50.605Z,6.05
2023-04-10T07:06:17.778Z,6.65
2023-04-10T07:08:44.756Z,6.05
2023-04-10T07:11:11.566Z,5.70
2023-04-10T07:13:40.173Z,5.75
2023-04-10T07:16:11.138Z,6.10
2023-04-10T07:18:39.099Z,6.05
2023-04-10T07:21:12.281Z,7.72
2023-04-10T07:23:39.324Z,7.95
2023-04-10T07:26:06.629Z,7.70
2023-04-10T07:28:33.635Z,7.93
2023-04-10T07:31:00.789Z,7.57
2023-04-10T07:33:27.745Z,6.30
2023-04-10T07:35:55.004Z,6.60
2023-04-10T07:38:24.139Z,6.25
2023-04-10T07:40:57.263Z,6.25
2023-04-10T07:43:24.466Z,5.90
2023-04-10T07:45:51.669Z,5.55
2023-04-10T07:48:18.766Z,5.68
2023-04-10T07:50:45.932Z,5.63
2023-04-10T07:53:12.934Z,5.25
2023-04-10T07:55:44.178Z,5.22
2023-04-10T07:58:11.640Z,5.60
2023-04-10T08:00:38.807Z,5.80
2023-04-10T08:03:06.744Z,5.03
2023-04-10T08:05:34.136Z,5.45
2023-04-10T08:08:01.150Z,4.93
2023-04-10T08:10:28.192Z,5.05
2023-04-10T08:12:55.173Z,5.20
2023-04-10T08:15:22.146Z,5.20
2023-04-10T08:17:49.011Z,5.50
2023-04-10T08:20:16.176Z,4.97
2023-04-10T08:22:43.041Z,4.70
2023-04-10T08:25:10.281Z,4.88
2023-04-10T08:27:37.448Z,5.20
2023-04-10T08:30:05.288Z,5.10
2023-04-10T08:32:32.512Z,5.55
2023-04-10T08:34:59.596Z,5.07
2023-04-10T08:37:26.995Z,4.97
2023-04-10T08:39:53.976Z,5.05
2023-04-10T08:42:21.030Z,4.90
2023-04-10T08:44:49.663Z,5.32
2023-04-10T08:47:21.274Z,5.25
2023-04-10T08:49:56.167Z,5.57
2023-04-10T08:52:25.996Z,5.13
2023-04-10T08:54:58.618Z,5.20
2023-04-10T08:57:26.944Z,5.15
2023-04-10T08:59:53.903Z,5.03
2023-04-10T09:02:21.884Z,4.75
2023-04-10T09:04:52.117Z,5.13
2023-04-10T09:07:19.163Z,5.63
2023-04-10T09:09:46.201Z,4.90
2023-04-10T09:12:14.279Z,5.00
2023-04-10T09:14:41.838Z,4.85
2023-04-10T09:17:19.261Z,4.90
2023-04-10T09:19:56.347Z,5.07
2023-04-10T09:22:31.424Z,5.13
2023-04-10T09:25:00.458Z,5.18
2023-04-10T09:27:35.622Z,4.78
2023-04-10T09:30:02.999Z,5.20
2023-04-10T09:32:44.453Z,4.82
2023-04-10T09:35:13.945Z,4.90
2023-04-10T09:37:42.446Z,4.63
2023-04-10T09:40:21.526Z,4.90
2023-04-10T09:42:48.485Z,4.65
2023-04-10T09:45:19.878Z,4.68
2023-04-10T09:48:07.382Z,5.07
2023-04-10T09:50:38.710Z,4.93
2023-04-10T09:53:07.832Z,4.85
2023-04-10T09:55:38.772Z,4.75
2023-04-10T09:58:06.509Z,4.75
2023-04-10T10:00:39.903Z,5.20
2023-04-10T10:03:12.777Z,4.80
2023-04-10T10:05:44.580Z,5.25
2023-04-10T10:08:12.871Z,4.13
2023-04-10T10:10:53.395Z,4.50
2023-04-10T10:13:29.278Z,4.68
2023-04-10T10:16:28.096Z,4.40
2023-04-10T10:19:21.072Z,4.45
2023-04-10T10:21:48.394Z,4.32
2023-04-10T10:24:17.228Z,4.47
2023-04-10T10:26:45.400Z,4.63
2023-04-10T10:29:14.477Z,4.22
2023-04-10T10:31:42.210Z,4.05
2023-04-10T10:34:09.967Z,4.10
2023-04-10T10:36:38.163Z,3.72
2023-04-10T10:39:47.572Z,4.30
2023-04-10T10:42:21.845Z,4.68
2023-04-10T10:45:08.099Z,3.92
2023-04-10T10:47:44.797Z,3.85
2023-04-10T10:50:11.822Z,3.90
2023-04-10T10:52:39.277Z,3.92
2023-04-10T10:55:39.689Z,3.95
2023-04-10T10:58:11.418Z,4.28
2023-04-10T11:01:01.548Z,4.18
2023-04-10T11:03:28.877Z,4.40
2023-04-10T11:06:07.306Z,4.18
2023-04-10T11:08:36.983Z,4.07
2023-04-10T11:11:08.291Z,4.07
2023-04-10T11:13:37.320Z,4.10
2023-04-10T11:16:06.633Z,3.97
2023-04-10T11:18:46.216Z,3.58
2023-04-10T11:21:14.871Z,3.80
2023-04-10T11:23:51.099Z,3.90
2023-04-10T11:26:40.249Z,3.88
2023-04-10T11:29:27.034Z,3.50
2023-04-10T11:31:58.600Z,3.50
2023-04-10T11:34:27.525Z,3.22
2023-04-10T11:36:54.738Z,3.53
2023-04-10T11:39:21.756Z,3.47
2023-04-10T11:41:51.031Z,3.72
2023-04-10T11:44:27.852Z,4.15
2023-04-10T11:46:54.861Z,3.30
2023-04-10T11:49:23.529Z,2.55
2023-04-10T11:51:51.696Z,2.78
2023-04-10T11:54:23.857Z,3.25
2023-04-10T11:57:00.027Z,2.60
2023-04-10T11:59:27.643Z,3.10
2023-04-10T12:02:15.387Z,2.90
2023-04-10T12:04:44.377Z,2.95
2023-04-10T12:07:11.806Z,2.80
2023-04-10T12:09:39.127Z,2.70
2023-04-10T12:12:08.198Z,3.00
2023-04-10T12:14:38.242Z,3.17
2023-04-10T12:17:11.120Z,3.17
2023-04-10T12:19:41.510Z,3.05
2023-04-10T12:22:12.020Z,3.15
2023-04-10T12:24:47.431Z,3.05
2023-04-10T12:27:21.179Z,3.05
2023-04-10T12:29:50.197Z,3.08
2023-04-10T12:32:17.169Z,3.20
2023-04-10T12:34:58.702Z,3.05
2023-04-10T12:37:45.671Z,2.92
2023-04-10T12:40:13.344Z,3.03
2023-04-10T12:42:41.300Z,2.50
2023-04-10T12:45:10.091Z,2.50
2023-04-10T12:47:48.901Z,2.60
2023-04-10T12:50:17.870Z,2.58
2023-04-10T12:53:03.911Z,2.88
2023-04-10T12:55:31.295Z,2.60
2023-04-10T12:57:58.434Z,2.75
2023-04-10T13:00:26.381Z,2.92
2023-04-10T13:02:53.561Z,2.65
2023-04-10T13:05:21.715Z,2.90
2023-04-10T13:07:52.884Z,2.58
2023-04-10T13:10:20.363Z,2.92
2023-04-10T13:12:47.501Z,3.05
2023-04-10T13:15:14.477Z,3.10
2023-04-10T13:17:41.939Z,2.95
2023-04-10T13:20:11.204Z,2.72
2023-04-10T13:22:38.384Z,3.17
2023-04-10T13:25:06.019Z,2.80
2023-04-10T13:27:33.153Z,2.80
2023-04-10T13:30:00.118Z,2.90
2023-04-10T13:32:27.202Z,2.97
2023-04-10T13:34:54.851Z,2.85
2023-04-10T13:37:21.972Z,2.75
2023-04-10T13:39:48.892Z,2.42
2023-04-10T13:42:15.885Z,2.22
2023-04-10T13:44:42.855Z,2.50
2023-04-10T13:47:09.936Z,2.58
2023-04-10T13:49:37.111Z,2.70
2023-04-10T13:52:04.038Z,2.50
2023-04-10T13:54:30.944Z,2.70
2023-04-10T13:56:59.374Z,2.70
2023-04-10T13:59:26.332Z,2.80
2023-04-10T14:01:53.373Z,2.55
2023-04-10T14:04:20.572Z,2.80
2023-04-10T14:06:48.007Z,2.50
2023-04-10T14:09:16.001Z,2.83
2023-04-10T14:11:42.996Z,2.50
2023-04-10T14:14:10.235Z,2.55
2023-04-10T14:16:37.466Z,2.35
2023-04-10T14:19:04.600Z,2.30
2023-04-10T14:21:31.909Z,2.47
2023-04-10T14:24:00.132Z,2.50
2023-04-10T14:26:27.329Z,2.45
2023-04-10T14:28:54.552Z,2.55
2023-04-10T14:31:21.790Z,2.70
2023-04-10T14:33:49.246Z,2.78
2023-04-10T14:36:16.349Z,2.60
2023-04-10T14:38:43.331Z,2.42
2023-04-10T14:41:10.359Z,2.53
2023-04-10T14:43:37.892Z,2.45
2023-04-10T14:46:05.058Z,2.60
2023-04-10T14:48:32.103Z,2.70
2023-04-10T14:50:59.278Z,2.20
2023-04-10T14:53:26.396Z,2.28
2023-04-10T14:55:53.542Z,2.15
2023-04-10T14:58:21.270Z,2.42
2023-04-10T15:00:48.239Z,2.72
2023-04-10T15:03:15.444Z,2.53
2023-04-10T15:05:42.437Z,2.30
2023-04-10T15:08:09.428Z,2.50
2023-04-10T15:10:36.304Z,2.28
2023-04-10T15:13:03.591Z,2.08
2023-04-10T15:15:31.449Z,2.33
2023-04-10T15:17:58.535Z,2.30
2023-04-10T15:20:25.586Z,2.85
2023-04-10T15:22:52.482Z,3.00
2023-04-10T15:25:19.457Z,2.60
2023-04-10T15:27:46.626Z,3.00
2023-04-10T15:30:13.736Z,2.75
2023-04-10T15:32:40.784Z,2.90
2023-04-10T15:35:08.497Z,2.65
2023-04-10T15:37:36.733Z,2.70
2023-04-10T15:40:04.763Z,2.67
2023-04-10T15:42:31.956Z,2.97
2023-04-10T15:44:58.978Z,3.03
2023-04-10T15:47:26.851Z,2.92
2023-04-10T15:49:53.852Z,3.50
2023-04-10T15:52:20.951Z,3.15
2023-04-10T15:54:47.876Z,3.28
2023-04-10T15:57:15.290Z,3.58
2023-04-10T15:59:42.162Z,3.88
2023-04-10T16:02:09.189Z,3.50
2023-04-10T16:04:36.276Z,3.47
2023-04-10T16:07:03.229Z,3.50
2023-04-10T16:09:30.678Z,3.70
2023-04-10T16:11:57.906Z,3.70
2023-04-10T16:14:24.869Z,3.83
2023-04-10T16:16:51.719Z,3.63
2023-04-10T16:19:18.720Z,4.25
2023-04-10T16:21:45.872Z,4.75
2023-04-10T16:24:12.839Z,4.47
2023-04-10T16:26:39.741Z,4.50
2023-04-10T16:29:06.672Z,4.95
2023-04-10T16:31:33.695Z,4.57
2023-04-10T16:34:01.358Z,4.53
2023-04-10T16:36:28.332Z,4.78
2023-04-10T16:38:55.265Z,4.93
2023-04-10T16:41:22.871Z,5.45
2023-04-10T16:43:49.684Z,4.47
2023-04-10T16:46:16.895Z,5.00
2023-04-10T16:48:44.949Z,5.30
2023-04-10T16:51:16.786Z,5.70
2023-04-10T16:53:44.032Z,5.00
2023-04-10T16:56:11.192Z,5.20
2023-04-10T16:58:38.628Z,5.50
2023-04-10T17:01:25.326Z,5.53
2023-04-10T17:03:52.903Z,4.47
2023-04-10T17:06:20.023Z,4.25
2023-04-10T17:08:47.210Z,4.65
2023-04-10T17:11:14.336Z,3.72
2023-04-10T17:13:41.730Z,3.03
2023-04-10T17:16:09.789Z,2.63
2023-04-10T17:18:36.915Z,2.33
2023-04-10T17:21:04.249Z,2.40
2023-04-10T17:23:31.255Z,2.22
2023-04-10T17:25:58.183Z,2.35
2023-04-10T17:28:25.525Z,2.15
2023-04-10T17:30:53.589Z,2.03
2023-04-10T17:33:21.844Z,1.90
2023-04-10T17:35:53.378Z,2.20
2023-04-10T17:38:20.274Z,2.10
2023-04-10T17:40:47.218Z,1.83
2023-04-10T17:43:14.063Z,2.50
2023-04-10T17:45:41.131Z,2.22
2023-04-10T17:48:09.009Z,2.40
2023-04-10T17:50:36.052Z,2.60
2023-04-10T17:53:03.139Z,2.30
2023-04-10T17:55:30.074Z,2.40
2023-04-10T17:58:00.155Z,2.40
2023-04-10T18:00:27.101Z,2.40
2023-04-10T18:02:59.899Z,2.10
2023-04-10T18:05:30.751Z,2.70
2023-04-10T18:07:57.721Z,2.55
2023-04-10T18:10:24.633Z,2.40
2023-04-10T18:12:51.697Z,2.30
2023-04-10T18:15:18.854Z,2.00
2023-04-10T18:17:45.871Z,2.40
2023-04-10T18:20:12.892Z,2.38
2023-04-10T18:22:39.712Z,2.38
2023-04-10T18:25:07.594Z,2.45
2023-04-10T18:27:35.934Z,2.10
2023-04-10T18:30:03.108Z,2.42
2023-04-10T18:32:30.124Z,2.33
2023-04-10T18:34:57.065Z,2.35
2023-04-10T18:37:24.224Z,3.10
2023-04-10T18:39:51.225Z,2.70
2023-04-10T18:42:18.141Z,2.47
2023-04-10T18:44:45.138Z,2.58
2023-04-10T18:47:12.010Z,3.17
2023-04-10T18:49:38.901Z,3.40
2023-04-10T18:52:06.028Z,3.13
2023-04-10T18:54:34.240Z,2.97
2023-04-10T18:57:02.075Z,3.08
2023-04-10T18:59:29.038Z,3.33
2023-04-10T19:01:56.193Z,3.47
2023-04-10T19:04:23.323Z,3.38
2023-04-10T19:06:50.581Z,3.45
2023-04-10T19:09:17.510Z,3.22
2023-04-10T19:11:44.564Z,4.20
2023-04-10T19:14:11.462Z,4.03
2023-04-10T19:16:38.316Z,5.38
2023-04-10T19:19:05.693Z,4.20
2023-04-10T19:21:32.562Z,4.03
2023-04-10T19:23:59.623Z,3.90
2023-04-10T19:26:26.614Z,3.75
2023-04-10T19:28:54.124Z,4.28
2023-04-10T19:31:21.341Z,4.03
2023-04-10T19:33:48.241Z,3.58
2023-04-10T19:36:18.248Z,3.63
2023-04-10T19:38:48.708Z,3.60
2023-04-10T19:41:16.090Z,3.28
2023-04-10T19:43:43.357Z,3.13
2023-04-10T19:46:17.805Z,2.80
2023-04-10T19:48:45.281Z,2.78
2023-04-10T19:51:12.269Z,2.73
2023-04-10T19:53:39.347Z,3.13
2023-04-10T19:56:06.887Z,2.60
2023-04-10T19:58:40.585Z,2.47
2023-04-10T20:01:11.885Z,2.60
2023-04-10T20:03:39.694Z,2.75
2023-04-10T20:06:08.000Z,2.40
2023-04-10T20:08:35.767Z,2.88
2023-04-10T20:11:06.148Z,2.60
2023-04-10T20:13:34.692Z,2.80
2023-04-10T20:16:02.153Z,3.03
2023-04-10T20:18:29.271Z,2.50
2023-04-10T20:20:56.119Z,2.42
2023-04-10T20:23:23.020Z,2.60
2023-04-10T20:25:50.045Z,2.70
2023-04-10T20:28:19.338Z,2.28
2023-04-10T20:30:46.361Z,3.10
2023-04-10T20:33:13.234Z,2.55
2023-04-10T20:35:40.260Z,2.42
2023-04-10T20:38:07.255Z,3.03
2023-04-10T20:40:34.793Z,2.65
2023-04-10T20:43:01.715Z,2.55
2023-04-10T20:45:28.588Z,2.45
2023-04-10T20:47:57.860Z,2.85
2023-04-10T20:50:24.940Z,2.60
2023-04-10T20:52:51.779Z,2.65
2023-04-10T20:55:18.731Z,2.65
2023-04-10T20:57:45.737Z,2.97
2023-04-10T21:00:13.268Z,2.95
2023-04-10T21:02:40.576Z,2.90
2023-04-10T21:05:07.904Z,3.05
2023-04-10T21:07:34.961Z,2.80
2023-04-10T21:10:01.914Z,3.30
2023-04-10T21:12:28.862Z,2.95
2023-04-10T21:14:55.714Z,2.83
2023-04-10T21:17:22.685Z,2.85
2023-04-10T21:19:49.751Z,2.65
2023-04-10T21:22:16.693Z,2.60
2023-04-10T21:24:43.792Z,2.72
2023-04-10T21:27:11.251Z,3.10
2023-04-10T21:29:38.190Z,2.65
2023-04-10T21:32:05.288Z,3.00
2023-04-10T21:34:32.389Z,2.67
2023-04-10T21:36:59.391Z,2.40
2023-04-10T21:39:26.375Z,2.63
2023-04-10T21:41:53.358Z,2.25
2023-04-10T21:44:21.109Z,2.65
2023-04-10T21:46:48.085Z,2.95
2023-04-10T21:49:15.049Z,2.83
2023-04-10T21:51:42.047Z,2.30
2023-04-10T21:54:08.980Z,2.72
2023-04-10T21:56:36.941Z,2.75
2023-04-10T21:59:03.896Z,2.40
2023-04-10T22:01:31.056Z,2.90
2023-04-10T22:03:58.199Z,2.53
2023-04-10T22:06:25.324Z,3.25
2023-04-10T22:08:52.653Z,2.20
2023-04-10T22:11:19.759Z,2.67
2023-04-10T22:13:46.769Z,2.47
2023-04-10T22:16:13.799Z,3.28
2023-04-10T22:18:40.752Z,2.55
2023-04-10T22:21:08.183Z,2.63
2023-04-10T22:23:35.247Z,2.70
2023-04-10T22:26:02.483Z,3.15
2023-04-10T22:28:29.421Z,3.35
2023-04-10T22:30:56.505Z,2.97
2023-04-10T22:33:23.606Z,3.10
2023-04-10T22:35:52.798Z,2.50
2023-04-10T22:38:19.824Z,3.05
2023-04-10T22:40:46.715Z,2.92
2023-04-10T22:43:13.763Z,3.53
2023-04-10T22:45:41.736Z,3.22
2023-04-10T22:48:08.745Z,2.55
2023-04-10T22:50:36.275Z,3.22
2023-04-10T22:53:03.336Z,3.00
2023-04-10T22:55:30.384Z,3.40
2023-04-10T22:57:57.322Z,3.17
2023-04-10T23:00:24.393Z,3.00
2023-04-10T23:02:51.536Z,3.55
2023-04-10T23:05:18.574Z,3.70
2023-04-10T23:07:45.658Z,3.33
2023-04-10T23:10:12.789Z,3.60
2023-04-10T23:12:39.743Z,3.20
2023-04-10T23:15:07.640Z,3.00
2023-04-10T23:17:34.761Z,2.90
2023-04-10T23:20:01.985Z,3.72
2023-04-10T23:22:29.803Z,2.78
2023-04-10T23:24:57.688Z,3.80
2023-04-10T23:27:24.718Z,4.25
2023-04-10T23:29:51.870Z,3.20
2023-04-10T23:32:18.864Z,3.05
2023-04-10T23:34:46.088Z,3.10
2023-04-10T23:37:13.212Z,3.42
2023-04-10T23:39:40.205Z,4.05
2023-04-10T23:42:07.212Z,4.78
2023-04-10T23:44:34.149Z,3.92
2023-04-10T23:47:01.207Z,3.80
2023-04-10T23:49:28.811Z,3.42
2023-04-10T23:51:55.806Z,3.08
2023-04-10T23:54:22.774Z,3.50
2023-04-10T23:56:49.737Z,3.35
2023-04-10T23:59:17.124Z,4.15
